createdAt,value
2023-04-02T00:00:59.572Z,385.00
2023-04-02T00:01:59.668Z,384.00
2023-04-02T00:02:59.734Z,382.00
2023-04-02T00:03:59.843Z,381.00
2023-04-02T00:04:59.775Z,380.00
2023-04-02T00:05:59.836Z,380.00
2023-04-02T00:06:59.887Z,379.00
2023-04-02T00:07:59.922Z,377.00
2023-04-02T00:08:59.977Z,376.00
2023-04-02T00:10:00.074Z,377.00
2023-04-02T00:11:00.170Z,378.00
2023-04-02T00:12:00.152Z,377.00
2023-04-02T00:13:00.229Z,378.00
2023-04-02T00:14:00.275Z,381.00
2023-04-02T00:15:00.309Z,382.00
2023-04-02T00:16:00.402Z,382.00
2023-04-02T00:17:00.407Z,381.00
2023-04-02T00:18:00.503Z,380.00
2023-04-02T00:19:00.534Z,379.00
2023-04-02T00:20:00.556Z,380.00
2023-04-02T00:21:00.604Z,380.00
2023-04-02T00:22:00.677Z,381.00
2023-04-02T00:23:00.724Z,381.00
2023-04-02T00:24:00.774Z,382.00
2023-04-02T00:25:00.815Z,383.00
2023-04-02T00:26:00.852Z,385.00
2023-04-02T00:27:00.887Z,386.00
2023-04-02T00:28:00.953Z,384.00
2023-04-02T00:29:01.004Z,380.00
2023-04-02T00:30:01.046Z,379.00
2023-04-02T00:31:01.072Z,380.00
2023-04-02T00:32:01.182Z,380.00
2023-04-02T00:33:01.199Z,381.00
2023-04-02T00:34:01.223Z,380.00
2023-04-02T00:35:01.274Z,379.00
2023-04-02T00:36:01.337Z,379.00
2023-04-02T00:37:01.389Z,380.00
2023-04-02T00:38:01.414Z,380.00
2023-04-02T00:39:01.448Z,380.00
2023-04-02T00:40:01.518Z,380.00
2023-04-02T00:41:01.539Z,380.00
2023-04-02T00:42:01.582Z,384.00
2023-04-02T00:43:01.638Z,383.00
2023-04-02T00:44:01.684Z,383.00
2023-04-02T00:45:01.723Z,383.00
2023-04-02T00:46:01.779Z,382.00
2023-04-02T00:47:01.810Z,386.00
2023-04-02T00:48:01.871Z,384.00
2023-04-02T00:49:01.894Z,384.00
2023-04-02T00:50:01.928Z,385.00
2023-04-02T00:51:01.954Z,385.00
2023-04-02T00:52:02.040Z,385.00
2023-04-02T00:53:02.030Z,386.00
2023-04-02T00:54:02.070Z,385.00
2023-04-02T00:55:02.134Z,385.00
2023-04-02T00:56:02.197Z,383.00
2023-04-02T00:57:02.258Z,384.00
2023-04-02T00:58:02.273Z,384.00
2023-04-02T00:59:02.319Z,385.00
2023-04-02T01:00:02.341Z,387.00
2023-04-02T01:01:02.461Z,388.00
2023-04-02T01:02:02.409Z,388.00
2023-04-02T01:03:02.572Z,388.00
2023-04-02T01:04:02.532Z,389.00
2023-04-02T01:05:02.715Z,389.00
2023-04-02T01:06:02.627Z,392.00
2023-04-02T01:07:02.663Z,392.00
2023-04-02T01:08:02.718Z,390.00
2023-04-02T01:09:02.740Z,387.00
2023-04-02T01:10:02.795Z,388.00
2023-04-02T01:11:02.819Z,391.00
2023-04-02T01:12:02.879Z,390.00
2023-04-02T01:13:02.908Z,391.00
2023-04-02T01:14:02.968Z,392.00
2023-04-02T01:15:02.999Z,392.00
2023-04-02T01:16:03.056Z,391.00
2023-04-02T01:17:03.066Z,390.00
2023-04-02T01:18:03.180Z,390.00
2023-04-02T01:19:03.177Z,389.00
2023-04-02T01:20:03.230Z,390.00
2023-04-02T01:21:03.273Z,390.00
2023-04-02T01:22:03.309Z,390.00
2023-04-02T01:23:03.368Z,390.00
2023-04-02T01:24:03.406Z,390.00
2023-04-02T01:25:03.424Z,392.00
2023-04-02T01:26:03.489Z,391.00
2023-04-02T01:27:03.570Z,388.00
2023-04-02T01:28:03.545Z,386.00
2023-04-02T01:29:03.571Z,387.00
2023-04-02T01:30:03.633Z,386.00
2023-04-02T01:31:03.652Z,387.00
2023-04-02T01:32:03.687Z,390.00
2023-04-02T01:33:03.743Z,391.00
2023-04-02T01:34:03.714Z,391.00
2023-04-02T01:35:03.755Z,390.00
2023-04-02T01:36:03.794Z,391.00
2023-04-02T01:37:03.806Z,391.00
2023-04-02T01:38:03.837Z,390.00
2023-04-02T01:39:03.860Z,388.00
2023-04-02T01:40:03.884Z,387.00
2023-04-02T01:41:03.924Z,388.00
2023-04-02T01:42:03.966Z,389.00
2023-04-02T01:43:04.012Z,388.00
2023-04-02T01:44:04.056Z,387.00
2023-04-02T01:45:04.068Z,388.00
2023-04-02T01:46:04.172Z,386.00
2023-04-02T01:47:04.122Z,387.00
2023-04-02T01:48:04.183Z,385.00
2023-04-02T01:49:04.172Z,384.00
2023-04-02T01:50:04.200Z,387.00
2023-04-02T01:51:04.224Z,390.00
2023-04-02T01:52:04.253Z,392.00
2023-04-02T01:53:04.265Z,390.00
2023-04-02T01:54:04.282Z,390.00
2023-04-02T01:55:04.334Z,390.00
2023-04-02T01:56:04.353Z,390.00
2023-04-02T01:57:04.423Z,391.00
2023-04-02T01:58:04.419Z,392.00
2023-04-02T01:59:04.433Z,392.00
2023-04-02T02:00:04.469Z,393.00
2023-04-02T02:01:04.549Z,393.00
2023-04-02T02:02:04.537Z,393.00
2023-04-02T02:03:04.682Z,393.00
2023-04-02T02:04:04.611Z,392.00
2023-04-02T02:05:04.630Z,393.00
2023-04-02T02:06:04.672Z,391.00
2023-04-02T02:07:04.688Z,393.00
2023-04-02T02:08:04.710Z,395.00
2023-04-02T02:09:04.768Z,394.00
2023-04-02T02:10:04.877Z,391.00
2023-04-02T02:11:04.807Z,390.00
2023-04-02T02:12:04.854Z,390.00
2023-04-02T02:13:04.888Z,390.00
2023-04-02T02:14:04.919Z,389.00
2023-04-02T02:15:04.924Z,388.00
2023-04-02T02:16:05.012Z,390.00
2023-04-02T02:17:04.982Z,391.00
2023-04-02T02:18:04.986Z,392.00
2023-04-02T02:19:05.019Z,392.00
2023-04-02T02:20:05.032Z,393.00
2023-04-02T02:21:05.056Z,392.00
2023-04-02T02:22:05.072Z,393.00
2023-04-02T02:23:05.075Z,392.00
2023-04-02T02:24:05.078Z,392.00
2023-04-02T02:25:05.080Z,393.00
2023-04-02T02:26:05.114Z,395.00
2023-04-02T02:27:05.128Z,392.00
2023-04-02T02:28:05.156Z,391.00
2023-04-02T02:29:05.166Z,393.00
2023-04-02T02:30:05.212Z,397.00
2023-04-02T02:31:05.224Z,394.00
2023-04-02T02:32:05.280Z,396.00
2023-04-02T02:33:05.297Z,395.00
2023-04-02T02:34:05.312Z,397.00
2023-04-02T02:35:05.329Z,398.00
2023-04-02T02:36:05.364Z,397.00
2023-04-02T02:37:05.373Z,395.00
2023-04-02T02:38:05.385Z,397.00
2023-04-02T02:39:05.411Z,397.00
2023-04-02T02:40:05.439Z,397.00
2023-04-02T02:41:05.467Z,395.00
2023-04-02T02:42:05.465Z,397.00
2023-04-02T02:43:05.507Z,395.00
2023-04-02T02:44:05.508Z,396.00
2023-04-02T02:45:05.520Z,396.00
2023-04-02T02:46:05.556Z,395.00
2023-04-02T02:47:05.521Z,398.00
2023-04-02T02:48:05.576Z,399.00
2023-04-02T02:49:05.530Z,398.00
2023-04-02T02:50:05.536Z,396.00
2023-04-02T02:51:05.596Z,396.00
2023-04-02T02:52:05.625Z,397.00
2023-04-02T02:53:05.650Z,398.00
2023-04-02T02:54:05.660Z,396.00
2023-04-02T02:55:05.709Z,397.00
2023-04-02T02:56:05.717Z,395.00
2023-04-02T02:57:05.784Z,394.00
2023-04-02T02:58:05.742Z,395.00
2023-04-02T02:59:05.771Z,397.00
2023-04-02T03:00:05.818Z,397.00
2023-04-02T03:01:05.849Z,394.00
2023-04-02T03:02:05.856Z,394.00
2023-04-02T03:03:06.028Z,393.00
2023-04-02T03:04:05.992Z,390.00
2023-04-02T03:05:05.924Z,392.00
2023-04-02T03:06:05.927Z,393.00
2023-04-02T03:07:05.945Z,396.00
2023-04-02T03:08:05.967Z,397.00
2023-04-02T03:09:05.992Z,396.00
2023-04-02T03:10:06.013Z,396.00
2023-04-02T03:11:06.012Z,394.00
2023-04-02T03:12:06.025Z,395.00
2023-04-02T03:13:06.027Z,395.00
2023-04-02T03:14:06.039Z,395.00
2023-04-02T03:15:06.080Z,397.00
2023-04-02T03:16:06.190Z,394.00
2023-04-02T03:17:06.121Z,396.00
2023-04-02T03:18:06.210Z,396.00
2023-04-02T03:19:06.164Z,397.00
2023-04-02T03:20:06.180Z,397.00
2023-04-02T03:21:06.220Z,397.00
2023-04-02T03:22:06.234Z,396.00
2023-04-02T03:23:06.265Z,396.00
2023-04-02T03:24:06.323Z,397.00
2023-04-02T03:25:06.301Z,398.00
2023-04-02T03:26:06.310Z,399.00
2023-04-02T03:27:06.446Z,397.00
2023-04-02T03:28:06.355Z,396.00
2023-04-02T03:29:06.377Z,396.00
2023-04-02T03:30:06.380Z,396.00
2023-04-02T03:31:06.474Z,397.00
2023-04-02T03:32:06.422Z,394.00
2023-04-02T03:33:06.461Z,394.00
2023-04-02T03:34:06.450Z,394.00
2023-04-02T03:35:06.487Z,396.00
2023-04-02T03:36:06.535Z,398.00
2023-04-02T03:37:06.548Z,399.00
2023-04-02T03:38:06.610Z,399.00
2023-04-02T03:39:06.614Z,400.00
2023-04-02T03:40:06.610Z,395.00
2023-04-02T03:41:06.668Z,394.00
2023-04-02T03:42:06.675Z,393.00
2023-04-02T03:43:06.697Z,391.00
2023-04-02T03:44:06.726Z,388.00
2023-04-02T03:45:06.747Z,389.00
2023-04-02T03:46:06.813Z,388.00
2023-04-02T03:47:06.831Z,389.00
2023-04-02T03:48:06.898Z,390.00
2023-04-02T03:49:06.922Z,392.00
2023-04-02T03:50:06.961Z,394.00
2023-04-02T03:51:06.948Z,393.00
2023-04-02T03:52:07.005Z,393.00
2023-04-02T03:53:07.033Z,394.00
2023-04-02T03:54:07.050Z,394.00
2023-04-02T03:55:07.070Z,394.00
2023-04-02T03:56:07.086Z,394.00
2023-04-02T03:57:07.168Z,394.00
2023-04-02T03:58:07.127Z,394.00
2023-04-02T03:59:07.146Z,396.00
2023-04-02T04:00:07.180Z,397.00
2023-04-02T04:01:07.175Z,397.00
2023-04-02T04:02:07.225Z,398.00
2023-04-02T04:03:07.227Z,400.00
2023-04-02T04:04:07.226Z,401.00
2023-04-02T04:05:07.210Z,400.00
2023-04-02T04:06:07.224Z,401.00
2023-04-02T04:07:07.307Z,402.00
2023-04-02T04:08:07.281Z,401.00
2023-04-02T04:09:07.280Z,400.00
2023-04-02T04:10:07.306Z,400.00
2023-04-02T04:11:07.351Z,403.00
2023-04-02T04:12:07.344Z,405.00
2023-04-02T04:13:07.349Z,404.00
2023-04-02T04:14:07.384Z,400.00
2023-04-02T04:15:07.383Z,400.00
2023-04-02T04:16:07.417Z,401.00
2023-04-02T04:17:07.418Z,398.00
2023-04-02T04:18:07.423Z,398.00
2023-04-02T04:19:07.398Z,398.00
2023-04-02T04:20:07.452Z,399.00
2023-04-02T04:21:07.403Z,398.00
2023-04-02T04:22:07.410Z,397.00
2023-04-02T04:23:07.420Z,397.00
2023-04-02T04:24:07.433Z,395.00
2023-04-02T04:25:07.429Z,393.00
2023-04-02T04:26:07.433Z,392.00
2023-04-02T04:27:07.433Z,390.00
2023-04-02T04:28:07.463Z,389.00
2023-04-02T04:29:07.452Z,390.00
2023-04-02T04:30:07.470Z,392.00
2023-04-02T04:31:07.451Z,392.00
2023-04-02T04:32:07.503Z,392.00
2023-04-02T04:33:07.487Z,391.00
2023-04-02T04:34:07.464Z,392.00
2023-04-02T04:35:07.482Z,393.00
2023-04-02T04:36:07.499Z,393.00
2023-04-02T04:37:07.498Z,395.00
2023-04-02T04:38:07.466Z,399.00
2023-04-02T04:39:07.508Z,399.00
2023-04-02T04:40:07.502Z,399.00
2023-04-02T04:41:07.500Z,397.00
2023-04-02T04:42:07.519Z,399.00
2023-04-02T04:43:07.532Z,400.00
2023-04-02T04:44:07.527Z,404.00
2023-04-02T04:45:07.514Z,403.00
2023-04-02T04:46:07.539Z,404.00
2023-04-02T04:47:07.527Z,403.00
2023-04-02T04:48:07.536Z,403.00
2023-04-02T04:49:07.533Z,403.00
2023-04-02T04:50:07.568Z,405.00
2023-04-02T04:51:07.585Z,406.00
2023-04-02T04:52:07.578Z,405.00
2023-04-02T04:53:07.579Z,401.00
2023-04-02T04:54:07.584Z,401.00
2023-04-02T04:55:07.593Z,398.00
2023-04-02T04:56:18.917Z,400.00
2023-04-02T04:57:08.649Z,399.00
2023-04-02T04:58:07.569Z,399.00
2023-04-02T04:59:07.580Z,399.00
2023-04-02T05:00:07.574Z,398.00
2023-04-02T05:01:07.619Z,397.00
2023-04-02T05:02:07.582Z,397.00
2023-04-02T05:03:07.577Z,396.00
2023-04-02T05:04:07.545Z,396.00
2023-04-02T05:05:07.539Z,398.00
2023-04-02T05:06:07.509Z,396.00
2023-04-02T05:07:07.508Z,396.00
2023-04-02T05:08:07.517Z,397.00
2023-04-02T05:09:07.493Z,398.00
2023-04-02T05:10:07.496Z,396.00
2023-04-02T05:11:07.472Z,394.00
2023-04-02T05:12:07.484Z,396.00
2023-04-02T05:13:07.512Z,397.00
2023-04-02T05:14:07.470Z,398.00
2023-04-02T05:15:07.477Z,393.00
2023-04-02T05:16:07.482Z,392.00
2023-04-02T05:17:07.452Z,391.00
2023-04-02T05:18:07.532Z,394.00
2023-04-02T05:19:07.431Z,395.00
2023-04-02T05:20:07.433Z,393.00
2023-04-02T05:21:07.410Z,393.00
2023-04-02T05:22:07.412Z,392.00
2023-04-02T05:23:07.416Z,394.00
2023-04-02T05:24:07.388Z,393.00
2023-04-02T05:25:07.387Z,393.00
2023-04-02T05:26:07.382Z,394.00
2023-04-02T05:27:07.368Z,396.00
2023-04-02T05:28:07.395Z,398.00
2023-04-02T05:29:07.360Z,398.00
2023-04-02T05:30:07.362Z,399.00
2023-04-02T05:31:07.419Z,398.00
2023-04-02T05:32:07.376Z,396.00
2023-04-02T05:33:07.400Z,395.00
2023-04-02T05:34:07.402Z,397.00
2023-04-02T05:35:07.435Z,397.00
2023-04-02T05:36:07.499Z,396.00
2023-04-02T05:37:07.466Z,394.00
2023-04-02T05:38:07.476Z,394.00
2023-04-02T05:39:07.469Z,394.00
2023-04-02T05:40:07.469Z,394.00
2023-04-02T05:41:07.519Z,394.00
2023-04-02T05:42:07.526Z,394.00
2023-04-02T05:43:07.588Z,392.00
2023-04-02T05:44:07.592Z,392.00
2023-04-02T05:45:07.627Z,393.00
2023-04-02T05:46:07.689Z,391.00
2023-04-02T05:47:07.723Z,389.00
2023-04-02T05:48:07.803Z,388.00
2023-04-02T05:49:07.803Z,389.00
2023-04-02T05:50:07.869Z,388.00
2023-04-02T05:51:07.881Z,387.00
2023-04-02T05:52:07.991Z,388.00
2023-04-02T05:53:08.049Z,390.00
2023-04-02T05:54:08.077Z,391.00
2023-04-02T05:55:08.129Z,394.00
2023-04-02T05:56:08.168Z,395.00
2023-04-02T05:57:08.279Z,391.00
2023-04-02T05:59:09.268Z,392.00
2023-04-02T06:00:08.322Z,393.00
2023-04-02T06:01:08.267Z,392.00
2023-04-02T06:02:08.306Z,391.00
2023-04-02T06:03:08.422Z,389.00
2023-04-02T06:04:08.353Z,391.00
2023-04-02T06:05:08.222Z,391.00
2023-04-02T06:06:08.220Z,391.00
2023-04-02T06:07:08.234Z,391.00
2023-04-02T06:08:08.278Z,389.00
2023-04-02T06:09:08.321Z,387.00
2023-04-02T06:10:08.357Z,387.00
2023-04-02T06:11:08.388Z,389.00
2023-04-02T06:12:08.401Z,391.00
2023-04-02T06:13:08.419Z,392.00
2023-04-02T06:14:08.400Z,392.00
2023-04-02T06:15:08.399Z,391.00
2023-04-02T06:16:08.462Z,390.00
2023-04-02T06:17:08.494Z,392.00
2023-04-02T06:18:08.634Z,392.00
2023-04-02T06:19:08.624Z,392.00
2023-04-02T06:20:08.663Z,394.00
2023-04-02T06:21:08.712Z,393.00
2023-04-02T06:22:08.764Z,392.00
2023-04-02T06:23:08.816Z,391.00
2023-04-02T06:24:08.836Z,391.00
2023-04-02T06:25:08.890Z,390.00
2023-04-02T06:26:08.890Z,390.00
2023-04-02T06:27:08.931Z,388.00
2023-04-02T06:28:08.935Z,388.00
2023-04-02T06:29:08.939Z,390.00
2023-04-02T06:30:08.933Z,396.00
2023-04-02T06:31:09.044Z,398.00
2023-04-02T06:32:09.040Z,398.00
2023-04-02T06:33:09.139Z,397.00
2023-04-02T06:34:09.092Z,397.00
2023-04-02T06:35:09.138Z,397.00
2023-04-02T06:36:09.155Z,398.00
2023-04-02T06:37:09.126Z,398.00
2023-04-02T06:38:09.216Z,400.00
2023-04-02T06:39:09.255Z,403.00
2023-04-02T06:40:09.292Z,403.00
2023-04-02T06:41:09.320Z,405.00
2023-04-02T06:42:09.356Z,408.00
2023-04-02T06:43:09.402Z,407.00
2023-04-02T06:44:09.421Z,402.00
2023-04-02T06:45:09.412Z,403.00
2023-04-02T06:46:09.474Z,404.00
2023-04-02T06:47:09.452Z,401.00
2023-04-02T06:48:09.498Z,401.00
2023-04-02T06:49:09.517Z,399.00
2023-04-02T06:50:09.588Z,395.00
2023-04-02T06:51:09.591Z,396.00
2023-04-02T06:52:09.614Z,393.00
2023-04-02T06:53:09.680Z,397.00
2023-04-02T06:54:09.694Z,396.00
2023-04-02T06:55:09.736Z,391.00
2023-04-02T06:56:09.739Z,393.00
2023-04-02T06:57:09.823Z,395.00
2023-04-02T06:58:09.813Z,401.00
2023-04-02T06:59:09.861Z,402.00
2023-04-02T07:00:09.848Z,400.00
2023-04-02T07:01:09.883Z,403.00
2023-04-02T07:02:09.853Z,404.00
2023-04-02T07:03:09.891Z,401.00
2023-04-02T07:04:09.873Z,401.00
2023-04-02T07:05:10.003Z,400.00
2023-04-02T07:06:09.925Z,398.00
2023-04-02T07:07:09.915Z,399.00
2023-04-02T07:08:09.928Z,401.00
2023-04-02T07:09:09.946Z,400.00
2023-04-02T07:10:09.947Z,402.00
2023-04-02T07:11:09.996Z,403.00
2023-04-02T07:12:10.021Z,406.00
2023-04-02T07:13:10.041Z,407.00
2023-04-02T07:14:10.027Z,410.00
2023-04-02T07:15:10.053Z,409.00
2023-04-02T07:16:10.108Z,406.00
2023-04-02T07:17:10.113Z,407.00
2023-04-02T07:18:10.217Z,408.00
2023-04-02T07:19:10.189Z,406.00
2023-04-02T07:20:10.209Z,403.00
2023-04-02T07:21:10.206Z,406.00
2023-04-02T07:22:10.243Z,406.00
2023-04-02T07:23:10.259Z,408.00
2023-04-02T07:24:10.343Z,407.00
2023-04-02T07:25:10.371Z,407.00
2023-04-02T07:26:10.432Z,407.00
2023-04-02T07:27:10.483Z,407.00
2023-04-02T07:28:10.510Z,405.00
2023-04-02T07:29:10.507Z,406.00
2023-04-02T07:30:10.500Z,409.00
2023-04-02T07:31:10.522Z,412.00
2023-04-02T07:32:10.535Z,412.00
2023-04-02T07:33:10.588Z,410.00
2023-04-02T07:34:10.519Z,411.00
2023-04-02T07:35:10.534Z,411.00
2023-04-02T07:36:10.588Z,411.00
2023-04-02T07:37:10.587Z,409.00
2023-04-02T07:38:10.620Z,410.00
2023-04-02T07:39:10.637Z,407.00
2023-04-02T07:40:10.664Z,408.00
2023-04-02T07:41:10.660Z,405.00
2023-04-02T07:42:10.655Z,404.00
2023-04-02T07:43:10.728Z,399.00
2023-04-02T07:44:10.776Z,401.00
2023-04-02T07:45:10.818Z,400.00
2023-04-02T07:46:10.893Z,403.00
2023-04-02T07:47:10.881Z,400.00
2023-04-02T07:48:10.887Z,397.00
2023-04-02T07:49:10.908Z,397.00
2023-04-02T07:50:10.938Z,396.00
2023-04-02T07:51:10.998Z,396.00
2023-04-02T07:52:11.020Z,396.00
2023-04-02T07:53:11.044Z,398.00
2023-04-02T07:54:11.045Z,396.00
2023-04-02T07:55:11.091Z,395.00
2023-04-02T07:56:11.111Z,397.00
2023-04-02T07:57:11.179Z,397.00
2023-04-02T07:58:11.235Z,395.00
2023-04-02T07:59:11.248Z,393.00
2023-04-02T08:00:11.292Z,393.00
2023-04-02T08:01:11.311Z,393.00
2023-04-02T08:02:11.363Z,394.00
2023-04-02T08:03:11.521Z,391.00
2023-04-02T08:04:11.413Z,390.00
2023-04-02T08:05:11.405Z,388.00
2023-04-02T08:06:11.401Z,395.00
2023-04-02T08:07:11.434Z,391.00
2023-04-02T08:08:11.467Z,392.00
2023-04-02T08:09:11.490Z,392.00
2023-04-02T08:10:11.504Z,395.00
2023-04-02T08:11:11.536Z,395.00
2023-04-02T08:12:11.567Z,396.00
2023-04-02T08:13:11.596Z,397.00
2023-04-02T08:14:11.653Z,399.00
2023-04-02T08:15:11.659Z,395.00
2023-04-02T08:16:11.837Z,395.00
2023-04-02T08:17:11.776Z,396.00
2023-04-02T08:18:11.836Z,398.00
2023-04-02T08:19:11.878Z,397.00
2023-04-02T08:20:11.948Z,396.00
2023-04-02T08:21:12.439Z,396.00
2023-04-02T08:22:12.038Z,392.00
2023-04-02T08:23:12.088Z,391.00
2023-04-02T08:24:12.100Z,389.00
2023-04-02T08:25:12.086Z,389.00
2023-04-02T08:26:12.121Z,389.00
2023-04-02T08:27:12.091Z,386.00
2023-04-02T08:28:12.091Z,386.00
2023-04-02T08:29:12.107Z,384.00
2023-04-02T08:30:12.120Z,385.00
2023-04-02T08:31:12.182Z,386.00
2023-04-02T08:32:12.183Z,385.00
2023-04-02T08:33:12.271Z,384.00
2023-04-02T08:34:12.259Z,385.00
2023-04-02T08:35:12.312Z,388.00
2023-04-02T08:36:12.380Z,386.00
2023-04-02T08:37:12.408Z,384.00
2023-04-02T08:38:12.404Z,383.00
2023-04-02T08:39:12.415Z,380.00
2023-04-02T08:40:12.411Z,380.00
2023-04-02T08:41:12.435Z,378.00
2023-04-02T08:42:12.457Z,379.00
2023-04-02T08:43:12.474Z,380.00
2023-04-02T08:44:12.513Z,384.00
2023-04-02T08:45:24.401Z,383.00
2023-04-02T08:46:13.577Z,383.00
2023-04-02T08:47:12.528Z,383.00
2023-04-02T08:48:12.504Z,386.00
2023-04-02T08:49:12.512Z,387.00
2023-04-02T08:50:12.500Z,388.00
2023-04-02T08:51:12.488Z,389.00
2023-04-02T08:52:12.491Z,388.00
2023-04-02T08:53:12.515Z,389.00
2023-04-02T08:54:12.472Z,388.00
2023-04-02T08:55:12.532Z,388.00
2023-04-02T08:56:12.464Z,389.00
2023-04-02T08:57:12.506Z,388.00
2023-04-02T08:58:12.491Z,386.00
2023-04-02T08:59:12.540Z,387.00
2023-04-02T09:00:12.586Z,387.00
2023-04-02T09:01:12.646Z,386.00
2023-04-02T09:02:12.704Z,385.00
2023-04-02T09:03:12.766Z,383.00
2023-04-02T09:04:12.851Z,384.00
2023-04-02T09:05:12.889Z,386.00
2023-04-02T09:06:14.727Z,385.00
2023-04-02T09:07:12.914Z,385.00
2023-04-02T09:08:12.898Z,385.00
2023-04-02T09:09:12.897Z,385.00
2023-04-02T09:10:12.893Z,382.00
2023-04-02T09:11:12.889Z,384.00
2023-04-02T09:12:12.871Z,388.00
2023-04-02T09:13:12.880Z,386.00
2023-04-02T09:14:12.865Z,387.00
2023-04-02T09:15:12.856Z,390.00
2023-04-02T09:16:12.887Z,390.00
2023-04-02T09:17:12.852Z,390.00
2023-04-02T09:18:12.916Z,389.00
2023-04-02T09:19:12.832Z,389.00
2023-04-02T09:20:12.813Z,390.00
2023-04-02T09:21:12.818Z,389.00
2023-04-02T09:22:12.798Z,387.00
2023-04-02T09:23:12.794Z,385.00
2023-04-02T09:24:12.792Z,383.00
2023-04-02T09:25:12.778Z,382.00
2023-04-02T09:26:12.784Z,384.00
2023-04-02T09:27:12.764Z,381.00
2023-04-02T09:28:12.752Z,386.00
2023-04-02T09:29:12.779Z,387.00
2023-04-02T09:30:12.763Z,385.00
2023-04-02T09:31:12.762Z,384.00
2023-04-02T09:32:12.743Z,385.00
2023-04-02T09:33:12.766Z,386.00
2023-04-02T09:34:12.745Z,385.00
2023-04-02T09:35:24.579Z,383.00
2023-04-02T09:36:15.679Z,380.00
2023-04-02T09:37:12.694Z,380.00
2023-04-02T09:38:12.733Z,378.00
2023-04-02T09:39:12.744Z,378.00
2023-04-02T09:40:12.681Z,380.00
2023-04-02T09:41:12.677Z,379.00
2023-04-02T09:42:12.678Z,380.00
2023-04-02T09:43:12.726Z,382.00
2023-04-02T09:44:12.681Z,381.00
2023-04-02T09:45:12.671Z,379.00
2023-04-02T09:46:12.681Z,381.00
2023-04-02T09:47:12.640Z,378.00
2023-04-02T09:48:12.663Z,379.00
2023-04-02T09:49:12.625Z,379.00
2023-04-02T09:50:12.626Z,379.00
2023-04-02T09:51:12.658Z,381.00
2023-04-02T09:52:12.623Z,382.00
2023-04-02T09:53:12.628Z,382.00
2023-04-02T09:54:12.714Z,381.00
2023-04-02T09:55:12.606Z,381.00
2023-04-02T09:56:12.580Z,382.00
2023-04-02T09:57:12.590Z,384.00
2023-04-02T09:58:12.575Z,383.00
2023-04-02T09:59:12.577Z,382.00
2023-04-02T10:00:21.821Z,384.00
2023-04-02T10:01:13.591Z,384.00
2023-04-02T10:02:12.533Z,383.00
2023-04-02T10:03:12.546Z,381.00
2023-04-02T10:04:12.562Z,377.00
2023-04-02T10:05:12.542Z,375.00
2023-04-02T10:06:12.510Z,376.00
2023-04-02T10:07:12.512Z,378.00
2023-04-02T10:08:12.503Z,378.00
2023-04-02T10:09:12.527Z,379.00
2023-04-02T10:10:12.531Z,381.00
2023-04-02T10:11:12.492Z,381.00
2023-04-02T10:12:12.542Z,381.00
2023-04-02T10:13:12.592Z,378.00
2023-04-02T10:14:12.653Z,377.00
2023-04-02T10:15:12.693Z,377.00
2023-04-02T10:16:12.793Z,376.00
2023-04-02T10:17:12.883Z,374.00
2023-04-02T10:18:12.884Z,373.00
2023-04-02T10:19:12.963Z,374.00
2023-04-02T10:20:13.067Z,374.00
2023-04-02T10:21:13.072Z,372.00
2023-04-02T10:22:13.149Z,372.00
2023-04-02T10:23:13.217Z,374.00
2023-04-02T10:24:13.305Z,375.00
2023-04-02T10:25:13.333Z,373.00
2023-04-02T10:26:13.393Z,372.00
2023-04-02T10:27:13.445Z,372.00
2023-04-02T10:28:13.521Z,372.00
2023-04-02T10:29:13.565Z,374.00
2023-04-02T10:30:13.619Z,374.00
2023-04-02T10:31:13.690Z,373.00
2023-04-02T10:32:13.740Z,374.00
2023-04-02T10:33:13.809Z,374.00
2023-04-02T10:34:13.878Z,376.00
2023-04-02T10:35:13.937Z,375.00
2023-04-02T10:36:14.015Z,374.00
2023-04-02T10:37:14.029Z,375.00
2023-04-02T10:38:14.092Z,379.00
2023-04-02T10:39:14.128Z,379.00
2023-04-02T10:40:14.189Z,378.00
2023-04-02T10:41:14.218Z,376.00
2023-04-02T10:42:14.240Z,377.00
2023-04-02T10:43:14.291Z,377.00
2023-04-02T10:44:20.189Z,378.00
2023-04-02T10:45:15.328Z,378.00
2023-04-02T10:46:14.397Z,379.00
2023-04-02T10:47:14.306Z,380.00
2023-04-02T10:48:14.330Z,378.00
2023-04-02T10:49:14.296Z,378.00
2023-04-02T10:50:14.311Z,375.00
2023-04-02T10:51:14.294Z,376.00
2023-04-02T10:52:14.280Z,376.00
2023-04-02T10:53:14.280Z,377.00
2023-04-02T10:54:14.276Z,377.00
2023-04-02T10:55:14.253Z,380.00
2023-04-02T10:56:14.277Z,379.00
2023-04-02T10:57:14.444Z,380.00
2023-04-02T10:58:14.351Z,380.00
2023-04-02T10:59:14.431Z,379.00
2023-04-02T11:00:14.470Z,380.00
2023-04-02T11:01:14.564Z,379.00
2023-04-02T11:02:14.594Z,381.00
2023-04-02T11:03:14.732Z,381.00
2023-04-02T11:04:14.713Z,379.00
2023-04-02T11:05:14.765Z,380.00
2023-04-02T11:06:14.806Z,379.00
2023-04-02T11:07:15.146Z,379.00
2023-04-02T11:08:14.865Z,375.00
2023-04-02T11:09:14.915Z,374.00
2023-04-02T11:10:14.898Z,374.00
2023-04-02T11:11:14.942Z,373.00
2023-04-02T11:12:14.944Z,370.00
2023-04-02T11:13:14.938Z,368.00
2023-04-02T11:14:14.963Z,369.00
2023-04-02T11:15:14.950Z,368.00
2023-04-02T11:16:14.983Z,369.00
2023-04-02T11:17:14.955Z,370.00
2023-04-02T11:18:14.948Z,372.00
2023-04-02T11:19:14.937Z,375.00
2023-04-02T11:20:14.945Z,377.00
2023-04-02T11:21:14.955Z,377.00
2023-04-02T11:22:14.950Z,378.00
2023-04-02T11:23:14.954Z,378.00
2023-04-02T11:24:14.956Z,377.00
2023-04-02T11:25:14.957Z,377.00
2023-04-02T11:26:14.958Z,376.00
2023-04-02T11:27:14.966Z,376.00
2023-04-02T11:28:14.950Z,375.00
2023-04-02T11:29:14.987Z,373.00
2023-04-02T11:30:14.980Z,371.00
2023-04-02T11:31:15.019Z,369.00
2023-04-02T11:32:14.986Z,370.00
2023-04-02T11:33:18.647Z,369.00
2023-04-02T11:34:15.984Z,368.00
2023-04-02T11:35:14.973Z,365.00
2023-04-02T11:36:14.982Z,365.00
2023-04-02T11:37:14.972Z,366.00
2023-04-02T11:38:14.944Z,366.00
2023-04-02T11:39:17.701Z,366.00
2023-04-02T11:40:14.965Z,365.00
2023-04-02T11:41:14.944Z,363.00
2023-04-02T11:42:14.935Z,362.00
2023-04-02T11:43:14.919Z,363.00
2023-04-02T11:44:14.947Z,364.00
2023-04-02T11:45:14.919Z,367.00
2023-04-02T11:46:14.942Z,366.00
2023-04-02T11:47:14.903Z,366.00
2023-04-02T11:48:14.888Z,367.00
2023-04-02T11:49:14.906Z,367.00
2023-04-02T11:50:14.874Z,367.00
2023-04-02T11:51:14.885Z,368.00
2023-04-02T11:52:14.863Z,369.00
2023-04-02T11:53:14.861Z,368.00
2023-04-02T11:54:14.854Z,368.00
2023-04-02T11:55:14.850Z,367.00
2023-04-02T11:56:14.832Z,366.00
2023-04-02T11:57:14.878Z,366.00
2023-04-02T11:58:14.839Z,366.00
2023-04-02T11:59:14.812Z,368.00
2023-04-02T12:00:16.213Z,368.00
2023-04-02T12:01:14.958Z,366.00
2023-04-02T12:02:14.838Z,369.00
2023-04-02T12:03:14.852Z,369.00
2023-04-02T12:04:14.796Z,368.00
2023-04-02T12:05:14.849Z,367.00
2023-04-02T12:06:14.761Z,367.00
2023-04-02T12:07:14.767Z,366.00
2023-04-02T12:08:14.748Z,368.00
2023-04-02T12:09:14.750Z,367.00
2023-04-02T12:10:14.734Z,367.00
2023-04-02T12:11:14.741Z,368.00
2023-04-02T12:12:14.767Z,368.00
2023-04-02T12:13:14.720Z,368.00
2023-04-02T12:14:14.714Z,368.00
2023-04-02T12:15:14.696Z,368.00
2023-04-02T12:16:14.711Z,369.00
2023-04-02T12:17:14.758Z,369.00
2023-04-02T12:18:14.700Z,372.00
2023-04-02T12:19:14.679Z,374.00
2023-04-02T12:20:14.671Z,377.00
2023-04-02T12:21:14.669Z,375.00
2023-04-02T12:22:14.650Z,374.00
2023-04-02T12:23:14.661Z,373.00
2023-04-02T12:24:14.654Z,372.00
2023-04-02T12:25:14.638Z,374.00
2023-04-02T12:26:14.682Z,372.00
2023-04-02T12:27:14.640Z,373.00
2023-04-02T12:28:14.622Z,374.00
2023-04-02T12:29:14.626Z,377.00
2023-04-02T12:30:14.616Z,377.00